Terminal Aerodrome Forecast
Issued by NWS

Home | Current Version | Previous Version | Text Only | Print | Product List | Glossary On
Versions: 1 2 3 4 5 6 7 8 9 10 11 12 13 14 15 16 17 18 19 20
000
FTUS42 KJAX 201700
TAFCRG
TAF
KCRG 201720Z 2018/2118 04011KT 6SM -SHRA SCT020 OVC050
      TEMPO 2018/2022 04015G25KT 3SM SHRA OVC020
     FM202300 36009KT P6SM VCSH BKN035 OVC150
     FM210600 32006KT P6SM SCT025=

USA.gov is the U.S. government's official web portal to all federal, state and local government web resources and services.